sensor_id;sensor_type;location;lat;lon;timestamp;P1;durP1;ratioP1;P2;durP2;ratioP2
6376;SDS011;3221;48.858;10.128;2023-08-17T00:00:40;5.32;;;4.78;;
6376;SDS011;3221;48.858;10.128;2023-08-17T00:03:07;6.25;;;4.90;;
6376;SDS011;3221;48.858;10.128;2023-08-17T00:05:34;7.35;;;4.80;;
6376;SDS011;3221;48.858;10.128;2023-08-17T00:08:01;6.72;;;5.05;;
6376;SDS011;3221;48.858;10.128;2023-08-17T00:10:28;5.82;;;5.00;;
6376;SDS011;3221;48.858;10.128;2023-08-17T00:12:55;6.82;;;4.90;;
6376;SDS011;3221;48.858;10.128;2023-08-17T00:15:22;5.82;;;5.00;;
6376;SDS011;3221;48.858;10.128;2023-08-17T00:17:49;6.25;;;4.85;;
6376;SDS011;3221;48.858;10.128;2023-08-17T00:20:16;5.75;;;4.80;;
6376;SDS011;3221;48.858;10.128;2023-08-17T00:22:43;7.60;;;4.80;;
6376;SDS011;3221;48.858;10.128;2023-08-17T00:25:10;5.38;;;4.88;;
6376;SDS011;3221;48.858;10.128;2023-08-17T00:27:38;6.68;;;4.97;;
6376;SDS011;3221;48.858;10.128;2023-08-17T00:30:06;5.22;;;4.78;;
6376;SDS011;3221;48.858;10.128;2023-08-17T00:32:33;5.70;;;5.03;;
6376;SDS011;3221;48.858;10.128;2023-08-17T00:35:00;6.70;;;5.25;;
6376;SDS011;3221;48.858;10.128;2023-08-17T00:37:27;6.43;;;4.90;;
6376;SDS011;3221;48.858;10.128;2023-08-17T00:39:54;5.57;;;4.95;;
6376;SDS011;3221;48.858;10.128;2023-08-17T00:42:22;5.78;;;5.28;;
6376;SDS011;3221;48.858;10.128;2023-08-17T00:44:49;5.45;;;4.47;;
6376;SDS011;3221;48.858;10.128;2023-08-17T00:47:16;5.30;;;4.80;;
6376;SDS011;3221;48.858;10.128;2023-08-17T00:49:43;7.95;;;4.70;;
6376;SDS011;3221;48.858;10.128;2023-08-17T00:52:10;4.95;;;4.47;;
6376;SDS011;3221;48.858;10.128;2023-08-17T00:54:37;5.50;;;4.63;;
6376;SDS011;3221;48.858;10.128;2023-08-17T00:57:04;5.05;;;4.60;;
6376;SDS011;3221;48.858;10.128;2023-08-17T00:59:33;8.25;;;4.90;;
6376;SDS011;3221;48.858;10.128;2023-08-17T01:02:02;5.50;;;4.38;;
6376;SDS011;3221;48.858;10.128;2023-08-17T01:04:31;5.30;;;4.50;;
6376;SDS011;3221;48.858;10.128;2023-08-17T01:06:58;5.28;;;4.78;;
6376;SDS011;3221;48.858;10.128;2023-08-17T01:09:26;5.27;;;4.77;;
6376;SDS011;3221;48.858;10.128;2023-08-17T01:11:56;5.30;;;4.78;;
6376;SDS011;3221;48.858;10.128;2023-08-17T01:14:35;6.00;;;4.65;;
6376;SDS011;3221;48.858;10.128;2023-08-17T01:17:10;5.57;;;4.90;;
6376;SDS011;3221;48.858;10.128;2023-08-17T01:19:42;7.70;;;5.05;;
6376;SDS011;3221;48.858;10.128;2023-08-17T01:22:11;7.68;;;4.75;;
6376;SDS011;3221;48.858;10.128;2023-08-17T01:24:40;6.15;;;4.47;;
6376;SDS011;3221;48.858;10.128;2023-08-17T01:27:07;6.67;;;5.10;;
6376;SDS011;3221;48.858;10.128;2023-08-17T01:29:35;5.57;;;5.03;;
6376;SDS011;3221;48.858;10.128;2023-08-17T01:32:13;6.87;;;5.03;;
6376;SDS011;3221;48.858;10.128;2023-08-17T01:34:50;6.37;;;4.50;;
6376;SDS011;3221;48.858;10.128;2023-08-17T01:37:23;7.10;;;5.43;;
6376;SDS011;3221;48.858;10.128;2023-08-17T01:39:55;6.73;;;5.37;;
6376;SDS011;3221;48.858;10.128;2023-08-17T01:42:24;6.90;;;5.00;;
6376;SDS011;3221;48.858;10.128;2023-08-17T01:44:53;5.73;;;5.13;;
6376;SDS011;3221;48.858;10.128;2023-08-17T01:47:21;5.67;;;5.07;;
6376;SDS011;3221;48.858;10.128;2023-08-17T01:49:49;5.73;;;5.20;;
6376;SDS011;3221;48.858;10.128;2023-08-17T01:52:16;7.33;;;5.10;;
6376;SDS011;3221;48.858;10.128;2023-08-17T01:54:43;5.90;;;5.30;;
6376;SDS011;3221;48.858;10.128;2023-08-17T01:57:11;6.77;;;5.70;;
6376;SDS011;3221;48.858;10.128;2023-08-17T01:59:38;6.80;;;5.47;;
6376;SDS011;3221;48.858;10.128;2023-08-17T02:02:05;6.33;;;5.73;;
6376;SDS011;3221;48.858;10.128;2023-08-17T02:04:32;8.47;;;5.53;;
6376;SDS011;3221;48.858;10.128;2023-08-17T02:06:59;8.57;;;6.40;;
6376;SDS011;3221;48.858;10.128;2023-08-17T02:09:26;7.50;;;5.73;;
6376;SDS011;3221;48.858;10.128;2023-08-17T02:11:53;6.67;;;5.53;;
6376;SDS011;3221;48.858;10.128;2023-08-17T02:14:20;10.40;;;6.10;;
6376;SDS011;3221;48.858;10.128;2023-08-17T02:16:47;6.87;;;6.13;;
6376;SDS011;3221;48.858;10.128;2023-08-17T02:19:14;6.57;;;5.97;;
6376;SDS011;3221;48.858;10.128;2023-08-17T02:21:41;6.70;;;6.10;;
6376;SDS011;3221;48.858;10.128;2023-08-17T02:24:08;7.97;;;6.40;;
6376;SDS011;3221;48.858;10.128;2023-08-17T02:26:35;6.50;;;5.90;;
6376;SDS011;3221;48.858;10.128;2023-08-17T02:29:04;7.50;;;6.00;;
6376;SDS011;3221;48.858;10.128;2023-08-17T02:31:31;8.07;;;6.17;;
6376;SDS011;3221;48.858;10.128;2023-08-17T02:33:58;8.03;;;6.60;;
6376;SDS011;3221;48.858;10.128;2023-08-17T02:36:31;6.80;;;6.17;;
6376;SDS011;3221;48.858;10.128;2023-08-17T02:39:01;7.47;;;6.77;;
6376;SDS011;3221;48.858;10.128;2023-08-17T02:41:29;7.30;;;6.50;;
6376;SDS011;3221;48.858;10.128;2023-08-17T02:43:58;7.80;;;6.00;;
6376;SDS011;3221;48.858;10.128;2023-08-17T02:46:25;9.17;;;6.47;;
6376;SDS011;3221;48.858;10.128;2023-08-17T02:48:52;6.60;;;6.00;;
6376;SDS011;3221;48.858;10.128;2023-08-17T02:51:19;11.80;;;6.20;;
6376;SDS011;3221;48.858;10.128;2023-08-17T02:53:46;6.70;;;5.87;;
6376;SDS011;3221;48.858;10.128;2023-08-17T02:56:13;5.80;;;5.20;;
6376;SDS011;3221;48.858;10.128;2023-08-17T02:58:40;6.07;;;5.47;;
6376;SDS011;3221;48.858;10.128;2023-08-17T03:01:08;6.53;;;5.27;;
6376;SDS011;3221;48.858;10.128;2023-08-17T03:03:35;6.47;;;5.27;;
6376;SDS011;3221;48.858;10.128;2023-08-17T03:06:02;6.00;;;5.40;;
6376;SDS011;3221;48.858;10.128;2023-08-17T03:08:29;6.97;;;6.07;;
6376;SDS011;3221;48.858;10.128;2023-08-17T03:10:56;6.03;;;4.97;;
6376;SDS011;3221;48.858;10.128;2023-08-17T03:13:23;5.83;;;5.23;;
6376;SDS011;3221;48.858;10.128;2023-08-17T03:15:50;6.37;;;5.13;;
6376;SDS011;3221;48.858;10.128;2023-08-17T03:18:17;6.10;;;5.47;;
6376;SDS011;3221;48.858;10.128;2023-08-17T03:20:44;9.40;;;5.93;;
6376;SDS011;3221;48.858;10.128;2023-08-17T03:23:12;7.77;;;5.23;;
6376;SDS011;3221;48.858;10.128;2023-08-17T03:25:39;7.73;;;5.70;;
6376;SDS011;3221;48.858;10.128;2023-08-17T03:28:06;6.13;;;5.53;;
6376;SDS011;3221;48.858;10.128;2023-08-17T03:30:33;6.10;;;5.47;;
6376;SDS011;3221;48.858;10.128;2023-08-17T03:33:01;5.90;;;5.40;;
6376;SDS011;3221;48.858;10.128;2023-08-17T03:35:30;7.00;;;6.00;;
6376;SDS011;3221;48.858;10.128;2023-08-17T03:37:57;7.10;;;5.80;;
6376;SDS011;3221;48.858;10.128;2023-08-17T03:40:25;6.50;;;5.60;;
6376;SDS011;3221;48.858;10.128;2023-08-17T03:42:52;7.80;;;5.97;;
6376;SDS011;3221;48.858;10.128;2023-08-17T03:45:19;6.80;;;5.80;;
6376;SDS011;3221;48.858;10.128;2023-08-17T03:47:49;6.00;;;5.50;;
6376;SDS011;3221;48.858;10.128;2023-08-17T03:50:16;5.90;;;5.23;;
6376;SDS011;3221;48.858;10.128;2023-08-17T03:52:43;6.97;;;6.17;;
6376;SDS011;3221;48.858;10.128;2023-08-17T03:55:10;6.80;;;6.10;;
6376;SDS011;3221;48.858;10.128;2023-08-17T03:57:37;7.70;;;6.23;;
6376;SDS011;3221;48.858;10.128;2023-08-17T04:00:06;6.57;;;5.70;;
6376;SDS011;3221;48.858;10.128;2023-08-17T04:02:38;6.80;;;6.03;;
6376;SDS011;3221;48.858;10.128;2023-08-17T04:05:06;7.67;;;6.23;;
6376;SDS011;3221;48.858;10.128;2023-08-17T04:07:34;28.10;;;6.80;;
6376;SDS011;3221;48.858;10.128;2023-08-17T04:10:03;7.03;;;5.67;;
6376;SDS011;3221;48.858;10.128;2023-08-17T04:12:31;7.67;;;6.13;;
6376;SDS011;3221;48.858;10.128;2023-08-17T04:14:58;8.63;;;6.30;;
6376;SDS011;3221;48.858;10.128;2023-08-17T04:17:25;7.80;;;6.50;;
6376;SDS011;3221;48.858;10.128;2023-08-17T04:19:53;7.27;;;5.97;;
6376;SDS011;3221;48.858;10.128;2023-08-17T04:22:21;6.97;;;6.03;;
6376;SDS011;3221;48.858;10.128;2023-08-17T04:24:47;7.40;;;5.97;;
6376;SDS011;3221;48.858;10.128;2023-08-17T04:27:15;6.43;;;5.83;;
6376;SDS011;3221;48.858;10.128;2023-08-17T04:29:42;7.60;;;6.23;;
6376;SDS011;3221;48.858;10.128;2023-08-17T04:32:13;9.37;;;6.27;;
6376;SDS011;3221;48.858;10.128;2023-08-17T04:34:42;7.90;;;6.60;;
6376;SDS011;3221;48.858;10.128;2023-08-17T04:37:13;7.27;;;6.57;;
6376;SDS011;3221;48.858;10.128;2023-08-17T04:39:40;9.37;;;6.57;;
6376;SDS011;3221;48.858;10.128;2023-08-17T04:42:13;6.80;;;6.10;;
6376;SDS011;3221;48.858;10.128;2023-08-17T04:44:40;6.90;;;6.20;;
6376;SDS011;3221;48.858;10.128;2023-08-17T04:47:07;6.53;;;5.90;;
6376;SDS011;3221;48.858;10.128;2023-08-17T04:49:34;7.20;;;6.50;;
6376;SDS011;3221;48.858;10.128;2023-08-17T04:52:01;7.70;;;6.13;;
6376;SDS011;3221;48.858;10.128;2023-08-17T04:54:29;8.83;;;6.00;;
6376;SDS011;3221;48.858;10.128;2023-08-17T04:56:56;6.47;;;5.90;;
6376;SDS011;3221;48.858;10.128;2023-08-17T04:59:23;6.80;;;6.13;;
6376;SDS011;3221;48.858;10.128;2023-08-17T05:01:51;6.80;;;6.13;;
6376;SDS011;3221;48.858;10.128;2023-08-17T05:04:18;7.43;;;6.07;;
6376;SDS011;3221;48.858;10.128;2023-08-17T05:06:45;6.37;;;5.77;;
6376;SDS011;3221;48.858;10.128;2023-08-17T05:09:12;6.50;;;5.90;;
6376;SDS011;3221;48.858;10.128;2023-08-17T05:11:39;8.50;;;5.97;;
6376;SDS011;3221;48.858;10.128;2023-08-17T05:14:06;7.33;;;6.53;;
6376;SDS011;3221;48.858;10.128;2023-08-17T05:16:33;7.40;;;6.40;;
6376;SDS011;3221;48.858;10.128;2023-08-17T05:19:00;8.10;;;6.50;;
6376;SDS011;3221;48.858;10.128;2023-08-17T05:21:27;6.47;;;5.87;;
6376;SDS011;3221;48.858;10.128;2023-08-17T05:23:55;9.80;;;6.70;;
6376;SDS011;3221;48.858;10.128;2023-08-17T05:26:22;7.27;;;6.57;;
6376;SDS011;3221;48.858;10.128;2023-08-17T05:28:49;8.90;;;7.03;;
6376;SDS011;3221;48.858;10.128;2023-08-17T05:31:16;7.20;;;6.60;;
6376;SDS011;3221;48.858;10.128;2023-08-17T05:33:46;7.07;;;6.37;;
6376;SDS011;3221;48.858;10.128;2023-08-17T05:36:13;7.87;;;6.63;;
6376;SDS011;3221;48.858;10.128;2023-08-17T05:38:40;7.20;;;6.50;;
6376;SDS011;3221;48.858;10.128;2023-08-17T05:41:07;10.27;;;6.63;;
6376;SDS011;3221;48.858;10.128;2023-08-17T05:43:34;8.43;;;6.50;;
6376;SDS011;3221;48.858;10.128;2023-08-17T05:46:01;7.27;;;6.57;;
6376;SDS011;3221;48.858;10.128;2023-08-17T05:48:29;7.40;;;6.50;;
6376;SDS011;3221;48.858;10.128;2023-08-17T05:50:56;9.53;;;6.50;;
6376;SDS011;3221;48.858;10.128;2023-08-17T05:53:23;7.87;;;7.17;;
6376;SDS011;3221;48.858;10.128;2023-08-17T05:55:50;7.50;;;6.57;;
6376;SDS011;3221;48.858;10.128;2023-08-17T05:58:17;8.67;;;7.73;;
6376;SDS011;3221;48.858;10.128;2023-08-17T06:00:44;9.17;;;6.87;;
6376;SDS011;3221;48.858;10.128;2023-08-17T06:03:11;13.87;;;10.43;;
6376;SDS011;3221;48.858;10.128;2023-08-17T06:05:39;9.30;;;8.00;;
6376;SDS011;3221;48.858;10.128;2023-08-17T06:08:06;8.63;;;7.60;;
6376;SDS011;3221;48.858;10.128;2023-08-17T06:10:33;7.50;;;6.80;;
6376;SDS011;3221;48.858;10.128;2023-08-17T06:13:00;7.53;;;6.73;;
6376;SDS011;3221;48.858;10.128;2023-08-17T06:15:26;7.10;;;6.40;;
6376;SDS011;3221;48.858;10.128;2023-08-17T06:17:53;7.83;;;6.50;;
6376;SDS011;3221;48.858;10.128;2023-08-17T06:20:20;7.40;;;6.70;;
6376;SDS011;3221;48.858;10.128;2023-08-17T06:22:47;6.60;;;6.00;;
6376;SDS011;3221;48.858;10.128;2023-08-17T06:25:16;7.87;;;6.47;;
6376;SDS011;3221;48.858;10.128;2023-08-17T06:27:42;7.20;;;6.50;;
6376;SDS011;3221;48.858;10.128;2023-08-17T06:30:10;7.17;;;6.47;;
6376;SDS011;3221;48.858;10.128;2023-08-17T06:32:38;8.47;;;6.57;;
6376;SDS011;3221;48.858;10.128;2023-08-17T06:35:05;7.43;;;6.67;;
6376;SDS011;3221;48.858;10.128;2023-08-17T06:37:33;6.60;;;6.00;;
6376;SDS011;3221;48.858;10.128;2023-08-17T06:40:00;7.00;;;5.83;;
6376;SDS011;3221;48.858;10.128;2023-08-17T06:42:27;7.67;;;6.03;;
6376;SDS011;3221;48.858;10.128;2023-08-17T06:44:54;7.93;;;6.50;;
6376;SDS011;3221;48.858;10.128;2023-08-17T06:47:21;8.17;;;6.10;;
6376;SDS011;3221;48.858;10.128;2023-08-17T06:49:48;7.13;;;6.43;;
6376;SDS011;3221;48.858;10.128;2023-08-17T06:52:15;7.20;;;6.50;;
6376;SDS011;3221;48.858;10.128;2023-08-17T06:54:42;6.60;;;5.90;;
6376;SDS011;3221;48.858;10.128;2023-08-17T06:57:09;7.07;;;6.47;;
6376;SDS011;3221;48.858;10.128;2023-08-17T06:59:36;7.33;;;6.63;;
6376;SDS011;3221;48.858;10.128;2023-08-17T07:02:03;7.33;;;6.63;;
6376;SDS011;3221;48.858;10.128;2023-08-17T07:04:31;7.77;;;6.00;;
6376;SDS011;3221;48.858;10.128;2023-08-17T07:06:58;9.20;;;6.43;;
6376;SDS011;3221;48.858;10.128;2023-08-17T07:09:25;7.53;;;6.60;;
6376;SDS011;3221;48.858;10.128;2023-08-17T07:11:54;7.00;;;6.30;;
6376;SDS011;3221;48.858;10.128;2023-08-17T07:14:21;7.40;;;6.70;;
6376;SDS011;3221;48.858;10.128;2023-08-17T07:16:48;8.10;;;7.30;;
6376;SDS011;3221;48.858;10.128;2023-08-17T07:19:15;7.23;;;6.53;;
6376;SDS011;3221;48.858;10.128;2023-08-17T07:21:42;7.80;;;7.10;;
6376;SDS011;3221;48.858;10.128;2023-08-17T07:24:12;7.00;;;6.40;;
6376;SDS011;3221;48.858;10.128;2023-08-17T07:26:40;7.70;;;7.00;;
6376;SDS011;3221;48.858;10.128;2023-08-17T07:29:07;8.10;;;7.40;;
6376;SDS011;3221;48.858;10.128;2023-08-17T07:31:34;9.00;;;7.13;;
6376;SDS011;3221;48.858;10.128;2023-08-17T07:34:04;7.97;;;7.17;;
6376;SDS011;3221;48.858;10.128;2023-08-17T07:36:32;9.18;;;7.35;;
6376;SDS011;3221;48.858;10.128;2023-08-17T07:38:59;8.53;;;7.73;;
6376;SDS011;3221;48.858;10.128;2023-08-17T07:41:26;10.33;;;8.10;;
6376;SDS011;3221;48.858;10.128;2023-08-17T07:43:53;8.90;;;7.97;;
6376;SDS011;3221;48.858;10.128;2023-08-17T07:46:20;8.93;;;7.80;;
6376;SDS011;3221;48.858;10.128;2023-08-17T07:48:47;8.10;;;7.40;;
6376;SDS011;3221;48.858;10.128;2023-08-17T07:51:15;9.43;;;7.87;;
6376;SDS011;3221;48.858;10.128;2023-08-17T07:53:42;8.87;;;7.40;;
6376;SDS011;3221;48.858;10.128;2023-08-17T07:56:09;12.23;;;8.60;;
6376;SDS011;3221;48.858;10.128;2023-08-17T07:58:36;10.67;;;8.63;;
6376;SDS011;3221;48.858;10.128;2023-08-17T08:01:03;7.93;;;7.17;;
6376;SDS011;3221;48.858;10.128;2023-08-17T08:03:30;9.43;;;8.43;;
6376;SDS011;3221;48.858;10.128;2023-08-17T08:05:57;10.02;;;8.50;;
6376;SDS011;3221;48.858;10.128;2023-08-17T08:08:24;9.33;;;8.43;;
6376;SDS011;3221;48.858;10.128;2023-08-17T08:10:52;10.95;;;9.80;;
6376;SDS011;3221;48.858;10.128;2023-08-17T08:13:20;10.02;;;8.43;;
6376;SDS011;3221;48.858;10.128;2023-08-17T08:15:47;11.23;;;9.00;;
6376;SDS011;3221;48.858;10.128;2023-08-17T08:18:14;9.07;;;8.18;;
6376;SDS011;3221;48.858;10.128;2023-08-17T08:20:41;12.18;;;9.15;;
6376;SDS011;3221;48.858;10.128;2023-08-17T08:23:08;9.77;;;8.75;;
6376;SDS011;3221;48.858;10.128;2023-08-17T08:25:35;9.35;;;8.45;;
6376;SDS011;3221;48.858;10.128;2023-08-17T08:28:01;12.73;;;8.65;;
6376;SDS011;3221;48.858;10.128;2023-08-17T08:30:28;11.63;;;8.48;;
6376;SDS011;3221;48.858;10.128;2023-08-17T08:32:55;12.82;;;9.27;;
6376;SDS011;3221;48.858;10.128;2023-08-17T08:35:24;9.65;;;8.75;;
6376;SDS011;3221;48.858;10.128;2023-08-17T08:37:51;11.27;;;10.18;;
6376;SDS011;3221;48.858;10.128;2023-08-17T08:40:18;10.35;;;9.27;;
6376;SDS011;3221;48.858;10.128;2023-08-17T08:42:47;10.15;;;8.85;;
6376;SDS011;3221;48.858;10.128;2023-08-17T08:45:14;12.85;;;10.75;;
6376;SDS011;3221;48.858;10.128;2023-08-17T08:47:41;10.52;;;9.45;;
6376;SDS011;3221;48.858;10.128;2023-08-17T08:50:11;11.18;;;9.10;;
6376;SDS011;3221;48.858;10.128;2023-08-17T08:52:53;12.40;;;11.15;;
6376;SDS011;3221;48.858;10.128;2023-08-17T08:55:27;10.45;;;9.45;;
6376;SDS011;3221;48.858;10.128;2023-08-17T08:57:56;10.23;;;9.13;;
6376;SDS011;3221;48.858;10.128;2023-08-17T09:00:25;11.02;;;9.93;;
6376;SDS011;3221;48.858;10.128;2023-08-17T09:02:52;11.25;;;10.23;;
6376;SDS011;3221;48.858;10.128;2023-08-17T09:05:20;11.45;;;10.43;;
6376;SDS011;3221;48.858;10.128;2023-08-17T09:07:48;10.50;;;9.50;;
6376;SDS011;3221;48.858;10.128;2023-08-17T09:10:16;11.60;;;9.57;;
6376;SDS011;3221;48.858;10.128;2023-08-17T09:12:45;12.55;;;9.60;;
6376;SDS011;3221;48.858;10.128;2023-08-17T09:15:15;10.07;;;9.07;;
6376;SDS011;3221;48.858;10.128;2023-08-17T09:17:42;13.68;;;8.60;;
6376;SDS011;3221;48.858;10.128;2023-08-17T09:20:09;10.63;;;9.05;;
6376;SDS011;3221;48.858;10.128;2023-08-17T09:25:08;11.07;;;8.95;;
6376;SDS011;3221;48.858;10.128;2023-08-17T09:27:48;12.20;;;9.73;;
6376;SDS011;3221;48.858;10.128;2023-08-17T09:30:15;11.00;;;9.93;;
6376;SDS011;3221;48.858;10.128;2023-08-17T09:32:46;10.68;;;9.73;;
6376;SDS011;3221;48.858;10.128;2023-08-17T09:35:14;10.38;;;9.38;;
6376;SDS011;3221;48.858;10.128;2023-08-17T09:37:41;9.82;;;8.95;;
6376;SDS011;3221;48.858;10.128;2023-08-17T09:40:10;11.43;;;10.32;;
6376;SDS011;3221;48.858;10.128;2023-08-17T09:42:37;9.88;;;8.88;;
6376;SDS011;3221;48.858;10.128;2023-08-17T09:45:05;9.52;;;8.63;;
6376;SDS011;3221;48.858;10.128;2023-08-17T09:47:33;9.80;;;8.90;;
6376;SDS011;3221;48.858;10.128;2023-08-17T09:50:04;9.68;;;8.65;;
6376;SDS011;3221;48.858;10.128;2023-08-17T09:52:32;11.43;;;10.23;;
6376;SDS011;3221;48.858;10.128;2023-08-17T09:54:59;10.68;;;9.60;;
6376;SDS011;3221;48.858;10.128;2023-08-17T09:57:34;10.77;;;9.63;;
6376;SDS011;3221;48.858;10.128;2023-08-17T10:00:02;12.65;;;11.32;;
6376;SDS011;3221;48.858;10.128;2023-08-17T10:02:30;12.13;;;10.93;;
6376;SDS011;3221;48.858;10.128;2023-08-17T10:04:58;11.88;;;10.75;;
6376;SDS011;3221;48.858;10.128;2023-08-17T10:07:30;11.00;;;10.00;;
6376;SDS011;3221;48.858;10.128;2023-08-17T10:10:03;11.13;;;10.13;;
6376;SDS011;3221;48.858;10.128;2023-08-17T10:12:39;10.48;;;9.43;;
6376;SDS011;3221;48.858;10.128;2023-08-17T10:15:13;10.98;;;9.98;;
6376;SDS011;3221;48.858;10.128;2023-08-17T10:17:50;11.98;;;10.77;;
6376;SDS011;3221;48.858;10.128;2023-08-17T10:20:25;12.27;;;11.07;;
6376;SDS011;3221;48.858;10.128;2023-08-17T10:25:27;12.20;;;11.10;;
6376;SDS011;3221;48.858;10.128;2023-08-17T10:27:54;12.07;;;10.85;;
6376;SDS011;3221;48.858;10.128;2023-08-17T10:30:25;11.55;;;10.45;;
6376;SDS011;3221;48.858;10.128;2023-08-17T10:32:53;11.95;;;10.75;;
6376;SDS011;3221;48.858;10.128;2023-08-17T10:35:20;11.30;;;10.40;;
6376;SDS011;3221;48.858;10.128;2023-08-17T10:37:47;11.93;;;10.82;;
6376;SDS011;3221;48.858;10.128;2023-08-17T10:40:14;12.52;;;11.35;;
6376;SDS011;3221;48.858;10.128;2023-08-17T10:42:41;12.02;;;10.73;;
6376;SDS011;3221;48.858;10.128;2023-08-17T10:45:27;11.52;;;10.43;;
6376;SDS011;3221;48.858;10.128;2023-08-17T10:50:37;11.70;;;10.60;;
6376;SDS011;3221;48.858;10.128;2023-08-17T10:53:11;12.15;;;10.95;;
6376;SDS011;3221;48.858;10.128;2023-08-17T10:55:39;11.10;;;10.05;;
6376;SDS011;3221;48.858;10.128;2023-08-17T10:58:07;11.88;;;10.77;;
6376;SDS011;3221;48.858;10.128;2023-08-17T11:00:41;11.27;;;10.05;;
6376;SDS011;3221;48.858;10.128;2023-08-17T11:03:18;11.80;;;10.60;;
6376;SDS011;3221;48.858;10.128;2023-08-17T11:05:50;12.00;;;10.90;;
6376;SDS011;3221;48.858;10.128;2023-08-17T11:08:28;11.65;;;10.45;;
6376;SDS011;3221;48.858;10.128;2023-08-17T11:10:59;11.65;;;10.45;;
6376;SDS011;3221;48.858;10.128;2023-08-17T11:13:33;11.95;;;10.73;;
6376;SDS011;3221;48.858;10.128;2023-08-17T11:16:02;12.13;;;10.90;;
6376;SDS011;3221;48.858;10.128;2023-08-17T11:18:32;11.95;;;10.85;;
6376;SDS011;3221;48.858;10.128;2023-08-17T11:20:59;11.80;;;10.75;;
6376;SDS011;3221;48.858;10.128;2023-08-17T11:23:29;10.95;;;9.95;;
6376;SDS011;3221;48.858;10.128;2023-08-17T11:25:57;12.20;;;10.77;;
6376;SDS011;3221;48.858;10.128;2023-08-17T11:28:24;12.00;;;10.80;;
6376;SDS011;3221;48.858;10.128;2023-08-17T11:30:59;11.70;;;10.50;;
6376;SDS011;3221;48.858;10.128;2023-08-17T11:33:27;12.00;;;10.70;;
6376;SDS011;3221;48.858;10.128;2023-08-17T11:35:59;12.43;;;11.20;;
6376;SDS011;3221;48.858;10.128;2023-08-17T11:38:32;11.45;;;10.40;;
6376;SDS011;3221;48.858;10.128;2023-08-17T11:41:06;11.75;;;10.75;;
6376;SDS011;3221;48.858;10.128;2023-08-17T11:43:35;11.82;;;10.77;;
6376;SDS011;3221;48.858;10.128;2023-08-17T11:46:02;11.25;;;10.23;;
6376;SDS011;3221;48.858;10.128;2023-08-17T11:48:30;11.38;;;10.25;;
6376;SDS011;3221;48.858;10.128;2023-08-17T11:51:02;11.00;;;9.95;;
6376;SDS011;3221;48.858;10.128;2023-08-17T11:53:37;11.52;;;10.40;;
6376;SDS011;3221;48.858;10.128;2023-08-17T11:56:07;11.57;;;10.57;;
6376;SDS011;3221;48.858;10.128;2023-08-17T11:58:43;12.23;;;10.32;;
6376;SDS011;3221;48.858;10.128;2023-08-17T12:01:12;11.43;;;10.43;;
6376;SDS011;3221;48.858;10.128;2023-08-17T12:03:42;12.57;;;10.55;;
6376;SDS011;3221;48.858;10.128;2023-08-17T12:06:10;11.30;;;10.23;;
6376;SDS011;3221;48.858;10.128;2023-08-17T12:08:46;11.23;;;10.13;;
6376;SDS011;3221;48.858;10.128;2023-08-17T12:11:15;11.07;;;10.10;;
6376;SDS011;3221;48.858;10.128;2023-08-17T12:13:48;11.15;;;10.05;;
6376;SDS011;3221;48.858;10.128;2023-08-17T12:16:19;10.60;;;9.48;;
6376;SDS011;3221;48.858;10.128;2023-08-17T12:18:48;10.30;;;9.30;;
6376;SDS011;3221;48.858;10.128;2023-08-17T12:21:20;9.68;;;8.73;;
6376;SDS011;3221;48.858;10.128;2023-08-17T12:23:48;9.30;;;8.40;;
6376;SDS011;3221;48.858;10.128;2023-08-17T12:26:21;12.68;;;8.90;;
6376;SDS011;3221;48.858;10.128;2023-08-17T12:28:49;10.10;;;9.20;;
6376;SDS011;3221;48.858;10.128;2023-08-17T12:31:20;13.20;;;11.90;;
6376;SDS011;3221;48.858;10.128;2023-08-17T12:33:50;10.13;;;9.15;;
6376;SDS011;3221;48.858;10.128;2023-08-17T12:36:17;10.95;;;10.00;;
6376;SDS011;3221;48.858;10.128;2023-08-17T12:38:45;10.30;;;8.85;;
6376;SDS011;3221;48.858;10.128;2023-08-17T12:41:14;9.13;;;8.32;;
6376;SDS011;3221;48.858;10.128;2023-08-17T12:43:41;10.00;;;8.90;;
6376;SDS011;3221;48.858;10.128;2023-08-17T12:46:08;11.52;;;9.02;;
6376;SDS011;3221;48.858;10.128;2023-08-17T12:48:35;9.48;;;8.60;;
6376;SDS011;3221;48.858;10.128;2023-08-17T12:51:02;9.43;;;8.52;;
6376;SDS011;3221;48.858;10.128;2023-08-17T12:53:30;9.52;;;8.57;;
6376;SDS011;3221;48.858;10.128;2023-08-17T12:55:57;9.40;;;8.57;;
6376;SDS011;3221;48.858;10.128;2023-08-17T12:58:24;8.93;;;8.23;;
6376;SDS011;3221;48.858;10.128;2023-08-17T13:00:51;9.32;;;8.52;;
6376;SDS011;3221;48.858;10.128;2023-08-17T13:03:21;10.85;;;9.45;;
6376;SDS011;3221;48.858;10.128;2023-08-17T13:05:48;10.57;;;9.50;;
6376;SDS011;3221;48.858;10.128;2023-08-17T13:08:15;10.60;;;9.60;;
6376;SDS011;3221;48.858;10.128;2023-08-17T13:10:42;10.00;;;9.10;;
6376;SDS011;3221;48.858;10.128;2023-08-17T13:13:09;10.30;;;9.40;;
6376;SDS011;3221;48.858;10.128;2023-08-17T13:15:36;10.85;;;9.75;;
6376;SDS011;3221;48.858;10.128;2023-08-17T13:18:03;11.07;;;9.73;;
6376;SDS011;3221;48.858;10.128;2023-08-17T13:20:31;11.00;;;9.93;;
6376;SDS011;3221;48.858;10.128;2023-08-17T13:22:57;11.05;;;9.95;;
6376;SDS011;3221;48.858;10.128;2023-08-17T13:25:24;10.65;;;9.65;;
6376;SDS011;3221;48.858;10.128;2023-08-17T13:27:52;10.85;;;9.93;;
6376;SDS011;3221;48.858;10.128;2023-08-17T13:30:18;10.35;;;9.38;;
6376;SDS011;3221;48.858;10.128;2023-08-17T13:32:45;10.45;;;9.45;;
6376;SDS011;3221;48.858;10.128;2023-08-17T13:35:14;9.95;;;9.05;;
6376;SDS011;3221;48.858;10.128;2023-08-17T13:37:41;10.98;;;10.00;;
6376;SDS011;3221;48.858;10.128;2023-08-17T13:40:08;10.82;;;9.82;;
6376;SDS011;3221;48.858;10.128;2023-08-17T13:42:36;13.40;;;9.73;;
6376;SDS011;3221;48.858;10.128;2023-08-17T13:45:03;10.15;;;9.18;;
6376;SDS011;3221;48.858;10.128;2023-08-17T13:47:30;10.30;;;9.13;;
6376;SDS011;3221;48.858;10.128;2023-08-17T13:49:57;10.45;;;9.45;;
6376;SDS011;3221;48.858;10.128;2023-08-17T13:52:25;10.52;;;9.63;;
6376;SDS011;3221;48.858;10.128;2023-08-17T13:54:52;10.00;;;9.20;;
6376;SDS011;3221;48.858;10.128;2023-08-17T13:57:19;10.48;;;9.48;;
6376;SDS011;3221;48.858;10.128;2023-08-17T13:59:46;10.50;;;9.60;;
6376;SDS011;3221;48.858;10.128;2023-08-17T14:02:13;10.80;;;9.80;;
6376;SDS011;3221;48.858;10.128;2023-08-17T14:04:40;11.98;;;10.77;;
6376;SDS011;3221;48.858;10.128;2023-08-17T14:07:07;10.52;;;9.52;;
6376;SDS011;3221;48.858;10.128;2023-08-17T14:09:34;10.80;;;9.80;;
6376;SDS011;3221;48.858;10.128;2023-08-17T14:12:01;11.13;;;9.50;;
6376;SDS011;3221;48.858;10.128;2023-08-17T14:14:28;10.80;;;9.68;;
6376;SDS011;3221;48.858;10.128;2023-08-17T14:16:55;10.48;;;9.38;;
6376;SDS011;3221;48.858;10.128;2023-08-17T14:19:24;10.75;;;8.50;;
6376;SDS011;3221;48.858;10.128;2023-08-17T14:21:51;8.57;;;7.72;;
6376;SDS011;3221;48.858;10.128;2023-08-17T14:24:18;8.45;;;7.72;;
6376;SDS011;3221;48.858;10.128;2023-08-17T14:26:45;8.93;;;7.95;;
6376;SDS011;3221;48.858;10.128;2023-08-17T14:29:12;8.80;;;8.00;;
6376;SDS011;3221;48.858;10.128;2023-08-17T14:31:39;8.82;;;7.88;;
6376;SDS011;3221;48.858;10.128;2023-08-17T14:34:06;9.30;;;7.82;;
6376;SDS011;3221;48.858;10.128;2023-08-17T14:36:33;8.60;;;7.70;;
6376;SDS011;3221;48.858;10.128;2023-08-17T14:39:00;8.43;;;7.63;;
6376;SDS011;3221;48.858;10.128;2023-08-17T14:41:27;8.57;;;7.78;;
6376;SDS011;3221;48.858;10.128;2023-08-17T14:43:58;9.77;;;8.77;;
6376;SDS011;3221;48.858;10.128;2023-08-17T14:46:28;9.30;;;8.30;;
6376;SDS011;3221;48.858;10.128;2023-08-17T14:48:55;9.27;;;8.48;;
6376;SDS011;3221;48.858;10.128;2023-08-17T14:51:23;10.35;;;9.15;;
6376;SDS011;3221;48.858;10.128;2023-08-17T14:53:56;9.10;;;8.23;;
6376;SDS011;3221;48.858;10.128;2023-08-17T14:56:23;9.45;;;8.32;;
6376;SDS011;3221;48.858;10.128;2023-08-17T14:58:50;9.30;;;8.30;;
6376;SDS011;3221;48.858;10.128;2023-08-17T15:01:17;8.80;;;8.00;;
6376;SDS011;3221;48.858;10.128;2023-08-17T15:03:44;9.07;;;8.18;;
6376;SDS011;3221;48.858;10.128;2023-08-17T15:06:13;8.70;;;7.90;;